sensor_id;sensor_type;location;lat;lon;timestamp;pressure;altitude;pressure_sealevel;temperature;humidity
37142;BME280;23041;49.816;20.092;2022-10-30T00:01:43;98191.84;;;11.92;65.72
37142;BME280;23041;49.816;20.092;2022-10-30T00:04:11;98201.03;;;11.85;65.75
37142;BME280;23041;49.816;20.092;2022-10-30T00:06:38;98205.77;;;11.85;65.72
37142;BME280;23041;49.816;20.092;2022-10-30T00:09:22;98201.22;;;11.95;65.72
37142;BME280;23041;49.816;20.092;2022-10-30T00:11:48;98196.00;;;12.00;65.78
37142;BME280;23041;49.816;20.092;2022-10-30T00:14:15;98203.05;;;12.01;65.79
37142;BME280;23041;49.816;20.092;2022-10-30T00:16:43;98206.04;;;11.99;65.76
37142;BME280;23041;49.816;20.092;2022-10-30T00:19:27;98198.56;;;11.91;65.74
37142;BME280;23041;49.816;20.092;2022-10-30T00:21:54;98203.16;;;11.86;65.72
37142;BME280;23041;49.816;20.092;2022-10-30T00:24:22;98190.61;;;11.65;65.74
37142;BME280;23041;49.816;20.092;2022-10-30T00:26:49;98200.83;;;11.65;65.77
37142;BME280;23041;49.816;20.092;2022-10-30T00:29:16;98201.42;;;11.64;65.80
37142;BME280;23041;49.816;20.092;2022-10-30T00:31:42;98197.56;;;11.62;65.83
37142;BME280;23041;49.816;20.092;2022-10-30T00:34:08;98204.63;;;11.51;65.93
37142;BME280;23041;49.816;20.092;2022-10-30T00:36:53;98206.86;;;11.48;66.00
37142;BME280;23041;49.816;20.092;2022-10-30T00:39:38;98207.17;;;11.42;66.06
37142;BME280;23041;49.816;20.092;2022-10-30T00:42:04;98209.03;;;11.37;66.12
37142;BME280;23041;49.816;20.092;2022-10-30T00:44:50;98212.56;;;11.37;66.16
37142;BME280;23041;49.816;20.092;2022-10-30T00:47:32;98204.57;;;11.23;66.30
37142;BME280;23041;49.816;20.092;2022-10-30T00:52:39;98213.36;;;11.46;66.64
37142;BME280;23041;49.816;20.092;2022-10-30T00:55:16;98208.56;;;11.50;66.73
37142;BME280;23041;49.816;20.092;2022-10-30T00:57:48;98210.72;;;11.51;66.78
37142;BME280;23041;49.816;20.092;2022-10-30T01:00:16;98215.62;;;11.51;66.83
37142;BME280;23041;49.816;20.092;2022-10-30T01:02:45;98209.52;;;11.52;66.89
37142;BME280;23041;49.816;20.092;2022-10-30T01:05:31;98210.44;;;11.45;66.91
37142;BME280;23041;49.816;20.092;2022-10-30T01:08:18;98211.42;;;11.35;66.94
37142;BME280;23041;49.816;20.092;2022-10-30T01:10:45;98215.66;;;11.28;66.94
37142;BME280;23041;49.816;20.092;2022-10-30T01:13:13;98217.62;;;11.08;66.98
37142;BME280;23041;49.816;20.092;2022-10-30T01:15:46;98218.25;;;11.03;66.97
37142;BME280;23041;49.816;20.092;2022-10-30T01:18:58;98224.34;;;11.03;66.99
37142;BME280;23041;49.816;20.092;2022-10-30T01:32:45;98207.45;;;11.04;67.09
37142;BME280;23041;49.816;20.092;2022-10-30T01:38:03;98190.98;;;10.93;67.24
37142;BME280;23041;49.816;20.092;2022-10-30T01:40:32;98205.42;;;10.97;67.32
37142;BME280;23041;49.816;20.092;2022-10-30T01:42:58;98214.12;;;11.15;67.38
37142;BME280;23041;49.816;20.092;2022-10-30T01:54:08;98202.63;;;11.43;67.79
37142;BME280;23041;49.816;20.092;2022-10-30T01:59:23;98171.58;;;11.55;68.14
37142;BME280;23041;49.816;20.092;2022-10-30T02:02:13;98163.71;;;11.65;68.29
37142;BME280;23041;49.816;20.092;2022-10-30T02:04:40;98167.30;;;11.73;68.41
37142;BME280;23041;49.816;20.092;2022-10-30T02:07:25;98174.45;;;11.87;68.46
37142;BME280;23041;49.816;20.092;2022-10-30T02:09:53;98176.55;;;11.91;68.47
37142;BME280;23041;49.816;20.092;2022-10-30T02:12:20;98178.86;;;11.93;68.44
37142;BME280;23041;49.816;20.092;2022-10-30T02:15:07;98181.19;;;11.94;68.41
37142;BME280;23041;49.816;20.092;2022-10-30T02:17:53;98173.53;;;11.94;68.38
37142;BME280;23041;49.816;20.092;2022-10-30T02:20:21;98172.75;;;11.85;68.33
37142;BME280;23041;49.816;20.092;2022-10-30T02:22:49;98171.78;;;11.64;68.33
37142;BME280;23041;49.816;20.092;2022-10-30T02:25:16;98174.25;;;11.58;68.36
37142;BME280;23041;49.816;20.092;2022-10-30T02:27:42;98177.86;;;11.55;68.31
37142;BME280;23041;49.816;20.092;2022-10-30T02:30:09;98170.98;;;11.55;68.28
37142;BME280;23041;49.816;20.092;2022-10-30T02:32:37;98173.69;;;11.47;68.27
37142;BME280;23041;49.816;20.092;2022-10-30T02:35:05;98174.93;;;11.54;68.27
37142;BME280;23041;49.816;20.092;2022-10-30T02:37:31;98171.17;;;11.44;68.29
37142;BME280;23041;49.816;20.092;2022-10-30T02:40:05;98155.70;;;11.23;68.25
37142;BME280;23041;49.816;20.092;2022-10-30T02:42:29;98157.66;;;11.14;68.25
37142;BME280;23041;49.816;20.092;2022-10-30T02:44:55;98146.14;;;10.99;68.31
37142;BME280;23041;49.816;20.092;2022-10-30T02:47:22;98154.13;;;10.90;68.39
37142;BME280;23041;49.816;20.092;2022-10-30T02:49:48;98158.58;;;10.96;68.45
37142;BME280;23041;49.816;20.092;2022-10-30T02:52:33;98164.37;;;10.78;68.44
37142;BME280;23041;49.816;20.092;2022-10-30T02:55:00;98173.55;;;10.80;68.45
37142;BME280;23041;49.816;20.092;2022-10-30T02:57:26;98174.58;;;10.78;68.46
37142;BME280;23041;49.816;20.092;2022-10-30T02:59:52;98177.48;;;10.79;68.53
37142;BME280;23041;49.816;20.092;2022-10-30T03:02:37;98174.03;;;10.75;68.55
37142;BME280;23041;49.816;20.092;2022-10-30T03:05:04;98187.39;;;10.73;68.62
37142;BME280;23041;49.816;20.092;2022-10-30T03:07:31;98184.11;;;10.58;68.69
37142;BME280;23041;49.816;20.092;2022-10-30T03:09:58;98190.98;;;10.58;68.73
37142;BME280;23041;49.816;20.092;2022-10-30T03:12:24;98189.97;;;10.60;68.81
37142;BME280;23041;49.816;20.092;2022-10-30T03:14:51;98188.05;;;10.69;68.80
37142;BME280;23041;49.816;20.092;2022-10-30T03:17:36;98186.37;;;10.63;68.81
37142;BME280;23041;49.816;20.092;2022-10-30T03:20:03;98187.05;;;10.59;68.77
37142;BME280;23041;49.816;20.092;2022-10-30T03:22:30;98190.72;;;10.49;68.76
37142;BME280;23041;49.816;20.092;2022-10-30T03:25:14;98193.03;;;10.39;68.76
37142;BME280;23041;49.816;20.092;2022-10-30T03:27:41;98195.66;;;10.34;68.77
37142;BME280;23041;49.816;20.092;2022-10-30T03:30:09;98187.59;;;10.23;68.84
37142;BME280;23041;49.816;20.092;2022-10-30T03:32:54;98186.06;;;10.19;68.95
37142;BME280;23041;49.816;20.092;2022-10-30T03:35:21;98178.65;;;10.16;68.99
37142;BME280;23041;49.816;20.092;2022-10-30T03:37:47;98177.09;;;10.15;69.05
37142;BME280;23041;49.816;20.092;2022-10-30T03:40:13;98166.12;;;10.15;69.06
37142;BME280;23041;49.816;20.092;2022-10-30T03:42:58;98164.74;;;10.18;69.07
37142;BME280;23041;49.816;20.092;2022-10-30T03:45:24;98163.00;;;10.13;69.11
37142;BME280;23041;49.816;20.092;2022-10-30T03:47:51;98168.14;;;10.11;69.13
37142;BME280;23041;49.816;20.092;2022-10-30T03:50:17;98170.45;;;10.01;69.13
37142;BME280;23041;49.816;20.092;2022-10-30T03:52:43;98158.30;;;9.87;69.18
37142;BME280;23041;49.816;20.092;2022-10-30T03:55:10;98165.02;;;9.82;69.22
37142;BME280;23041;49.816;20.092;2022-10-30T03:57:55;98170.51;;;9.82;69.27
37142;BME280;23041;49.816;20.092;2022-10-30T04:00:21;98170.48;;;9.97;69.30
37142;BME280;23041;49.816;20.092;2022-10-30T04:02:49;98166.28;;;10.04;69.39
37142;BME280;23041;49.816;20.092;2022-10-30T04:05:19;98163.31;;;10.07;69.44
37142;BME280;23041;49.816;20.092;2022-10-30T04:07:46;98164.53;;;10.02;69.46
37142;BME280;23041;49.816;20.092;2022-10-30T04:10:14;98159.61;;;9.90;69.43
37142;BME280;23041;49.816;20.092;2022-10-30T04:13:01;98158.23;;;9.90;69.42
37142;BME280;23041;49.816;20.092;2022-10-30T04:15:29;98148.16;;;9.68;69.40
37142;BME280;23041;49.816;20.092;2022-10-30T04:17:56;98152.17;;;9.60;69.40
37142;BME280;23041;49.816;20.092;2022-10-30T04:20:24;98147.16;;;9.55;69.41
37142;BME280;23041;49.816;20.092;2022-10-30T04:22:58;98145.73;;;9.43;69.41
37142;BME280;23041;49.816;20.092;2022-10-30T04:25:26;98154.65;;;9.51;69.41
37142;BME280;23041;49.816;20.092;2022-10-30T04:28:12;98151.13;;;9.51;69.41
37142;BME280;23041;49.816;20.092;2022-10-30T04:30:39;98152.88;;;9.53;69.47
37142;BME280;23041;49.816;20.092;2022-10-30T04:33:09;98153.01;;;9.57;69.52
37142;BME280;23041;49.816;20.092;2022-10-30T04:35:36;98160.37;;;9.64;69.60
37142;BME280;23041;49.816;20.092;2022-10-30T04:38:04;98164.66;;;9.65;69.61
37142;BME280;23041;49.816;20.092;2022-10-30T04:40:37;98164.16;;;9.58;69.64
37142;BME280;23041;49.816;20.092;2022-10-30T04:43:05;98159.23;;;9.42;69.67
37142;BME280;23041;49.816;20.092;2022-10-30T04:45:32;98163.73;;;9.45;69.70
37142;BME280;23041;49.816;20.092;2022-10-30T04:48:01;98163.53;;;9.43;69.73
37142;BME280;23041;49.816;20.092;2022-10-30T04:50:52;98169.34;;;9.49;69.77
37142;BME280;23041;49.816;20.092;2022-10-30T04:53:18;98167.38;;;9.50;69.77
37142;BME280;23041;49.816;20.092;2022-10-30T04:55:45;98156.05;;;9.48;69.78
37142;BME280;23041;49.816;20.092;2022-10-30T04:58:30;98163.33;;;9.46;69.84
37142;BME280;23041;49.816;20.092;2022-10-30T05:01:01;98163.43;;;9.35;69.87
37142;BME280;23041;49.816;20.092;2022-10-30T05:03:28;98158.19;;;9.33;69.88
37142;BME280;23041;49.816;20.092;2022-10-30T05:06:21;98161.12;;;9.34;69.92
37142;BME280;23041;49.816;20.092;2022-10-30T05:08:50;98156.58;;;9.35;69.95
37142;BME280;23041;49.816;20.092;2022-10-30T05:11:17;98140.08;;;9.24;70.03
37142;BME280;23041;49.816;20.092;2022-10-30T05:14:02;98139.66;;;9.29;70.11
37142;BME280;23041;49.816;20.092;2022-10-30T05:16:28;98144.81;;;9.23;70.14
37142;BME280;23041;49.816;20.092;2022-10-30T05:18:55;98150.19;;;9.30;70.14
37142;BME280;23041;49.816;20.092;2022-10-30T05:21:40;98155.20;;;9.35;70.14
37142;BME280;23041;49.816;20.092;2022-10-30T05:24:07;98154.00;;;9.40;70.15
37142;BME280;23041;49.816;20.092;2022-10-30T05:26:34;98161.89;;;9.34;70.14
37142;BME280;23041;49.816;20.092;2022-10-30T05:29:00;98162.16;;;9.28;70.10
37142;BME280;23041;49.816;20.092;2022-10-30T05:31:45;98162.97;;;9.25;70.10
37142;BME280;23041;49.816;20.092;2022-10-30T05:34:11;98168.52;;;9.18;70.14
37142;BME280;23041;49.816;20.092;2022-10-30T05:36:38;98149.86;;;9.06;70.17
37142;BME280;23041;49.816;20.092;2022-10-30T05:39:04;98156.12;;;9.07;70.21
37142;BME280;23041;49.816;20.092;2022-10-30T05:41:30;98155.46;;;9.14;70.29
37142;BME280;23041;49.816;20.092;2022-10-30T05:43:59;98161.08;;;9.19;70.35
37142;BME280;23041;49.816;20.092;2022-10-30T05:46:26;98170.73;;;9.30;70.38
37142;BME280;23041;49.816;20.092;2022-10-30T05:49:10;98167.70;;;9.40;70.42
37142;BME280;23041;49.816;20.092;2022-10-30T05:51:37;98167.70;;;9.55;70.49
37142;BME280;23041;49.816;20.092;2022-10-30T05:54:04;98164.50;;;9.60;70.54
37142;BME280;23041;49.816;20.092;2022-10-30T05:56:31;98164.80;;;9.69;70.54
37142;BME280;23041;49.816;20.092;2022-10-30T05:58:57;98162.63;;;9.84;70.55
37142;BME280;23041;49.816;20.092;2022-10-30T06:01:42;98156.02;;;9.81;70.59
37142;BME280;23041;49.816;20.092;2022-10-30T06:04:09;98161.55;;;9.93;70.59
37142;BME280;23041;49.816;20.092;2022-10-30T06:06:37;98155.21;;;10.11;70.61
37142;BME280;23041;49.816;20.092;2022-10-30T06:09:04;98154.62;;;10.39;70.58
37142;BME280;23041;49.816;20.092;2022-10-30T06:11:48;98150.03;;;10.67;70.54
37142;BME280;23041;49.816;20.092;2022-10-30T06:14:15;98155.69;;;10.91;70.48
37142;BME280;23041;49.816;20.092;2022-10-30T06:16:42;98167.97;;;11.18;70.41
37142;BME280;23041;49.816;20.092;2022-10-30T06:19:08;98167.05;;;11.44;70.34
37142;BME280;23041;49.816;20.092;2022-10-30T06:21:35;98176.30;;;11.74;70.28
37142;BME280;23041;49.816;20.092;2022-10-30T06:24:01;98161.91;;;11.86;70.21
37142;BME280;23041;49.816;20.092;2022-10-30T06:26:31;98170.16;;;12.14;70.14
37142;BME280;23041;49.816;20.092;2022-10-30T06:29:15;98167.88;;;12.45;70.02
37142;BME280;23041;49.816;20.092;2022-10-30T06:31:42;98179.02;;;12.94;69.87
37142;BME280;23041;49.816;20.092;2022-10-30T06:34:08;98172.51;;;13.62;69.75
37142;BME280;23041;49.816;20.092;2022-10-30T06:36:34;98174.70;;;14.34;69.57
37142;BME280;23041;49.816;20.092;2022-10-30T06:39:01;98177.10;;;14.53;69.36
37142;BME280;23041;49.816;20.092;2022-10-30T06:41:27;98184.18;;;14.41;68.93
37142;BME280;23041;49.816;20.092;2022-10-30T06:43:53;98189.94;;;14.26;68.51
37142;BME280;23041;49.816;20.092;2022-10-30T06:46:38;98185.17;;;14.14;68.09
37142;BME280;23041;49.816;20.092;2022-10-30T06:49:04;98183.38;;;14.28;67.71
37142;BME280;23041;49.816;20.092;2022-10-30T06:51:31;98186.34;;;14.42;67.44
37142;BME280;23041;49.816;20.092;2022-10-30T06:54:16;98179.30;;;14.70;67.18
37142;BME280;23041;49.816;20.092;2022-10-30T06:56:42;98180.69;;;15.39;66.95
37142;BME280;23041;49.816;20.092;2022-10-30T06:59:09;98186.72;;;16.79;66.75
37142;BME280;23041;49.816;20.092;2022-10-30T07:01:36;98185.03;;;18.09;66.34
37142;BME280;23041;49.816;20.092;2022-10-30T07:04:02;98188.56;;;19.60;65.81
37142;BME280;23041;49.816;20.092;2022-10-30T07:06:28;98181.95;;;20.70;64.86
37142;BME280;23041;49.816;20.092;2022-10-30T07:08:55;98184.59;;;21.91;63.72
37142;BME280;23041;49.816;20.092;2022-10-30T07:11:22;98177.69;;;23.50;62.55
37142;BME280;23041;49.816;20.092;2022-10-30T07:13:49;98174.46;;;24.85;61.07
37142;BME280;23041;49.816;20.092;2022-10-30T07:16:15;98182.52;;;25.91;59.20
37142;BME280;23041;49.816;20.092;2022-10-30T07:18:42;98190.46;;;26.70;57.25
37142;BME280;23041;49.816;20.092;2022-10-30T07:21:26;98182.58;;;27.48;55.26
37142;BME280;23041;49.816;20.092;2022-10-30T07:23:53;98183.90;;;28.22;53.08
37142;BME280;23041;49.816;20.092;2022-10-30T07:26:19;98186.05;;;29.06;51.34
37142;BME280;23041;49.816;20.092;2022-10-30T07:28:46;98185.23;;;29.91;49.68
37142;BME280;23041;49.816;20.092;2022-10-30T07:31:12;98179.56;;;30.66;47.93
37142;BME280;23041;49.816;20.092;2022-10-30T07:33:38;98182.86;;;31.35;46.21
37142;BME280;23041;49.816;20.092;2022-10-30T07:36:06;98184.36;;;32.15;44.62
37142;BME280;23041;49.816;20.092;2022-10-30T07:38:33;98187.64;;;32.72;42.98
37142;BME280;23041;49.816;20.092;2022-10-30T07:40:59;98184.58;;;33.08;41.37
37142;BME280;23041;49.816;20.092;2022-10-30T07:43:26;98185.06;;;33.21;40.01
37142;BME280;23041;49.816;20.092;2022-10-30T07:45:52;98183.14;;;31.66;38.92
37142;BME280;23041;49.816;20.092;2022-10-30T07:48:19;98178.55;;;30.01;38.28
37142;BME280;23041;49.816;20.092;2022-10-30T07:51:04;98173.91;;;28.59;38.10
37142;BME280;23041;49.816;20.092;2022-10-30T07:53:31;98165.09;;;27.43;38.11
37142;BME280;23041;49.816;20.092;2022-10-30T07:55:57;98172.23;;;28.83;38.26
37142;BME280;23041;49.816;20.092;2022-10-30T07:58:42;98177.23;;;29.29;37.95
37142;BME280;23041;49.816;20.092;2022-10-30T08:01:27;98176.15;;;30.54;37.47
37142;BME280;23041;49.816;20.092;2022-10-30T08:03:53;98183.25;;;32.49;36.92
37142;BME280;23041;49.816;20.092;2022-10-30T08:06:19;98187.98;;;33.85;35.90
37142;BME280;23041;49.816;20.092;2022-10-30T08:08:46;98187.22;;;34.99;34.96
37142;BME280;23041;49.816;20.092;2022-10-30T08:11:12;98184.81;;;36.25;33.90
37142;BME280;23041;49.816;20.092;2022-10-30T08:13:38;98179.43;;;37.22;32.69
37142;BME280;23041;49.816;20.092;2022-10-30T08:16:07;98177.09;;;37.86;31.53
37142;BME280;23041;49.816;20.092;2022-10-30T08:18:33;98171.53;;;38.48;30.40
37142;BME280;23041;49.816;20.092;2022-10-30T08:21:00;98178.29;;;39.36;29.46
37142;BME280;23041;49.816;20.092;2022-10-30T08:23:26;98175.99;;;39.66;28.50
37142;BME280;23041;49.816;20.092;2022-10-30T08:25:58;98173.92;;;40.23;27.72
37142;BME280;23041;49.816;20.092;2022-10-30T08:28:28;98169.52;;;39.88;26.72
37142;BME280;23041;49.816;20.092;2022-10-30T08:30:54;98162.81;;;40.41;26.36
37142;BME280;23041;49.816;20.092;2022-10-30T08:33:39;98166.91;;;40.71;25.70
37142;BME280;23041;49.816;20.092;2022-10-30T08:36:07;98162.00;;;40.97;25.05
37142;BME280;23041;49.816;20.092;2022-10-30T08:38:34;98164.52;;;40.91;24.56
37142;BME280;23041;49.816;20.092;2022-10-30T08:41:19;98163.08;;;41.27;24.06
37142;BME280;23041;49.816;20.092;2022-10-30T08:43:45;98158.83;;;41.90;23.60
37142;BME280;23041;49.816;20.092;2022-10-30T08:46:11;98165.67;;;42.62;23.25
37142;BME280;23041;49.816;20.092;2022-10-30T08:48:38;98173.95;;;42.95;22.66
37142;BME280;23041;49.816;20.092;2022-10-30T08:51:23;98166.76;;;43.24;22.18
37142;BME280;23041;49.816;20.092;2022-10-30T08:53:50;98164.34;;;41.48;21.24
37142;BME280;23041;49.816;20.092;2022-10-30T08:56:16;98161.29;;;39.94;21.38
37142;BME280;23041;49.816;20.092;2022-10-30T08:58:43;98151.27;;;39.29;21.51
37142;BME280;23041;49.816;20.092;2022-10-30T09:01:27;98150.62;;;38.67;21.66
37142;BME280;23041;49.816;20.092;2022-10-30T09:03:54;98144.05;;;38.05;21.99
37142;BME280;23041;49.816;20.092;2022-10-30T09:06:20;98146.84;;;38.64;22.37
37142;BME280;23041;49.816;20.092;2022-10-30T09:08:46;98149.34;;;39.76;22.14
37142;BME280;23041;49.816;20.092;2022-10-30T09:11:13;98145.01;;;40.43;21.80
37142;BME280;23041;49.816;20.092;2022-10-30T09:13:42;98148.77;;;40.12;21.41
37142;BME280;23041;49.816;20.092;2022-10-30T09:16:09;98143.48;;;39.41;21.34
37142;BME280;23041;49.816;20.092;2022-10-30T09:18:35;98146.36;;;39.20;21.49
37142;BME280;23041;49.816;20.092;2022-10-30T09:21:20;98140.27;;;39.69;21.43
37142;BME280;23041;49.816;20.092;2022-10-30T09:23:46;98142.45;;;39.15;21.33
37142;BME280;23041;49.816;20.092;2022-10-30T09:26:13;98149.39;;;40.32;21.14
37142;BME280;23041;49.816;20.092;2022-10-30T09:28:39;98138.91;;;41.08;20.85
37142;BME280;23041;49.816;20.092;2022-10-30T09:31:24;98129.38;;;41.92;20.40
37142;BME280;23041;49.816;20.092;2022-10-30T09:33:50;98134.65;;;41.46;19.79
37142;BME280;23041;49.816;20.092;2022-10-30T09:36:17;98129.02;;;41.99;19.70
37142;BME280;23041;49.816;20.092;2022-10-30T09:38:43;98124.48;;;40.84;19.46
37142;BME280;23041;49.816;20.092;2022-10-30T09:56:33;98118.61;;;40.70;18.88
37142;BME280;23041;49.816;20.092;2022-10-30T10:02:18;98109.57;;;40.40;19.10
37142;BME280;23041;49.816;20.092;2022-10-30T10:07:54;98109.59;;;40.87;18.96
37142;BME280;23041;49.816;20.092;2022-10-30T10:10:44;98111.02;;;41.23;18.84
37142;BME280;23041;49.816;20.092;2022-10-30T10:13:29;98105.66;;;40.47;18.83
37142;BME280;23041;49.816;20.092;2022-10-30T10:16:33;98101.84;;;40.20;18.93
37142;BME280;23041;49.816;20.092;2022-10-30T10:22:48;98101.77;;;38.87;19.02
37142;BME280;23041;49.816;20.092;2022-10-30T10:25:35;98101.84;;;38.88;19.43
37142;BME280;23041;49.816;20.092;2022-10-30T10:30:49;98100.78;;;37.61;19.63
37142;BME280;23041;49.816;20.092;2022-10-30T10:36:54;98088.71;;;36.95;20.44
37142;BME280;23041;49.816;20.092;2022-10-30T10:42:56;98095.51;;;39.77;20.42
37142;BME280;23041;49.816;20.092;2022-10-30T10:51:09;98091.13;;;41.15;19.05
37142;BME280;23041;49.816;20.092;2022-10-30T10:56:19;98086.59;;;40.41;18.89
37142;BME280;23041;49.816;20.092;2022-10-30T10:58:55;98088.48;;;41.20;18.95
37142;BME280;23041;49.816;20.092;2022-10-30T11:01:34;98081.25;;;42.75;18.74
37142;BME280;23041;49.816;20.092;2022-10-30T11:06:49;98087.50;;;42.57;17.74
37142;BME280;23041;49.816;20.092;2022-10-30T11:09:19;98085.90;;;42.82;17.52
37142;BME280;23041;49.816;20.092;2022-10-30T11:11:47;98091.89;;;41.79;17.55
37142;BME280;23041;49.816;20.092;2022-10-30T11:14:20;98093.97;;;41.90;17.75
37142;BME280;23041;49.816;20.092;2022-10-30T11:19:37;98099.19;;;43.01;17.75
37142;BME280;23041;49.816;20.092;2022-10-30T11:22:13;98098.91;;;43.53;17.52
37142;BME280;23041;49.816;20.092;2022-10-30T11:24:38;98095.41;;;44.01;17.29
37142;BME280;23041;49.816;20.092;2022-10-30T11:27:25;98089.92;;;44.38;17.12
37142;BME280;23041;49.816;20.092;2022-10-30T11:30:19;98094.09;;;45.51;16.91
37142;BME280;23041;49.816;20.092;2022-10-30T11:32:47;98088.13;;;46.40;16.50
37142;BME280;23041;49.816;20.092;2022-10-30T11:35:18;98083.38;;;46.49;16.08
37142;BME280;23041;49.816;20.092;2022-10-30T11:40:46;98084.41;;;43.82;16.30
37142;BME280;23041;49.816;20.092;2022-10-30T11:43:17;98087.88;;;43.20;16.48
37142;BME280;23041;49.816;20.092;2022-10-30T11:45:45;98082.38;;;42.83;16.68
37142;BME280;23041;49.816;20.092;2022-10-30T11:48:32;98092.52;;;42.57;16.91
37142;BME280;23041;49.816;20.092;2022-10-30T11:51:00;98089.09;;;42.33;17.16
37142;BME280;23041;49.816;20.092;2022-10-30T11:53:35;98095.73;;;41.58;17.40
37142;BME280;23041;49.816;20.092;2022-10-30T11:56:15;98091.80;;;40.91;17.68
37142;BME280;23041;49.816;20.092;2022-10-30T11:58:54;98100.94;;;40.40;18.11
37142;BME280;23041;49.816;20.092;2022-10-30T12:01:35;98111.36;;;39.88;18.44
37142;BME280;23041;49.816;20.092;2022-10-30T12:04:24;98099.83;;;39.54;18.65
37142;BME280;23041;49.816;20.092;2022-10-30T12:07:24;98099.47;;;39.60;18.89
37142;BME280;23041;49.816;20.092;2022-10-30T12:09:54;98102.80;;;39.24;19.01
37142;BME280;23041;49.816;20.092;2022-10-30T12:12:41;98113.78;;;38.74;19.18
37142;BME280;23041;49.816;20.092;2022-10-30T12:18:02;98106.15;;;38.16;19.69
37142;BME280;23041;49.816;20.092;2022-10-30T12:20:36;98100.26;;;37.64;19.69
37142;BME280;23041;49.816;20.092;2022-10-30T12:27:09;98095.13;;;37.52;20.04
37142;BME280;23041;49.816;20.092;2022-10-30T12:29:45;98090.92;;;37.05;20.44
37142;BME280;23041;49.816;20.092;2022-10-30T12:32:33;98087.00;;;37.88;20.52
37142;BME280;23041;49.816;20.092;2022-10-30T12:35:23;98090.58;;;38.70;20.17
37142;BME280;23041;49.816;20.092;2022-10-30T12:37:57;98086.14;;;38.78;19.80
37142;BME280;23041;49.816;20.092;2022-10-30T12:40:55;98081.12;;;37.37;19.73
37142;BME280;23041;49.816;20.092;2022-10-30T12:43:35;98081.08;;;37.76;20.04
37142;BME280;23041;49.816;20.092;2022-10-30T12:46:13;98083.98;;;37.08;20.10
37142;BME280;23041;49.816;20.092;2022-10-30T12:48:44;98080.75;;;36.94;20.29
37142;BME280;23041;49.816;20.092;2022-10-30T13:00:57;98069.02;;;35.79;21.50
37142;BME280;23041;49.816;20.092;2022-10-30T13:04:02;98070.94;;;35.77;21.75
37142;BME280;23041;49.816;20.092;2022-10-30T13:06:15;98075.14;;;36.39;21.91
37142;BME280;23041;49.816;20.092;2022-10-30T13:09:08;98072.13;;;35.30;21.93
37142;BME280;23041;49.816;20.092;2022-10-30T13:11:58;98072.45;;;35.16;22.37
37142;BME280;23041;49.816;20.092;2022-10-30T13:14:45;98070.92;;;35.50;22.50
37142;BME280;23041;49.816;20.092;2022-10-30T13:17:37;98069.70;;;36.33;22.34
37142;BME280;23041;49.816;20.092;2022-10-30T13:20:13;98065.00;;;36.74;22.05
37142;BME280;23041;49.816;20.092;2022-10-30T13:22:54;98061.00;;;37.07;21.85
37142;BME280;23041;49.816;20.092;2022-10-30T13:26:00;98064.41;;;37.34;21.59
37142;BME280;23041;49.816;20.092;2022-10-30T13:28:32;98064.30;;;37.71;21.39
37142;BME280;23041;49.816;20.092;2022-10-30T13:31:28;98061.40;;;36.93;21.21
37142;BME280;23041;49.816;20.092;2022-10-30T13:33:59;98058.07;;;35.85;21.55
37142;BME280;23041;49.816;20.092;2022-10-30T13:37:05;98060.31;;;36.05;21.86
37142;BME280;23041;49.816;20.092;2022-10-30T13:39:56;98065.21;;;35.85;21.99
37142;BME280;23041;49.816;20.092;2022-10-30T13:42:42;98072.70;;;34.68;22.36
37142;BME280;23041;49.816;20.092;2022-10-30T13:54:31;98058.84;;;30.63;25.23
37142;BME280;23041;49.816;20.092;2022-10-30T13:57:09;98058.41;;;30.45;25.82
37142;BME280;23041;49.816;20.092;2022-10-30T13:59:54;98058.75;;;30.13;26.51
37142;BME280;23041;49.816;20.092;2022-10-30T14:08:53;98064.72;;;29.14;28.43
37142;BME280;23041;49.816;20.092;2022-10-30T14:11:21;98062.76;;;29.22;29.00
37142;BME280;23041;49.816;20.092;2022-10-30T14:14:02;98065.73;;;29.04;29.47
37142;BME280;23041;49.816;20.092;2022-10-30T14:16:44;98071.57;;;29.26;29.73
37142;BME280;23041;49.816;20.092;2022-10-30T14:19:16;98070.33;;;29.75;29.98
37142;BME280;23041;49.816;20.092;2022-10-30T14:21:52;98068.47;;;30.05;29.95
37142;BME280;23041;49.816;20.092;2022-10-30T14:24:27;98066.69;;;30.15;29.90
37142;BME280;23041;49.816;20.092;2022-10-30T14:29:54;98067.31;;;30.21;29.88
37142;BME280;23041;49.816;20.092;2022-10-30T14:39:57;98070.73;;;28.71;30.33
37142;BME280;23041;49.816;20.092;2022-10-30T14:42:44;98070.48;;;28.23;30.84
37142;BME280;23041;49.816;20.092;2022-10-30T14:45:44;98063.16;;;27.51;31.47
37142;BME280;23041;49.816;20.092;2022-10-30T14:51:34;98058.37;;;26.06;32.81
37142;BME280;23041;49.816;20.092;2022-10-30T14:54:26;98066.34;;;25.72;33.47
37142;BME280;23041;49.816;20.092;2022-10-30T14:57:50;98057.27;;;25.31;34.08
37142;BME280;23041;49.816;20.092;2022-10-30T15:03:04;98060.19;;;24.23;35.77
37142;BME280;23041;49.816;20.092;2022-10-30T15:05:56;98053.67;;;24.11;36.20
37142;BME280;23041;49.816;20.092;2022-10-30T15:12:14;98050.55;;;23.42;37.17
37142;BME280;23041;49.816;20.092;2022-10-30T15:14:56;98042.02;;;22.65;37.90
37142;BME280;23041;49.816;20.092;2022-10-30T15:17:31;98041.50;;;22.34;38.73
37142;BME280;23041;49.816;20.092;2022-10-30T15:20:00;98044.20;;;22.23;39.26
37142;BME280;23041;49.816;20.092;2022-10-30T15:22:54;98042.22;;;22.08;39.77
37142;BME280;23041;49.816;20.092;2022-10-30T15:25:20;98043.63;;;21.82;40.20
37142;BME280;23041;49.816;20.092;2022-10-30T15:27:50;98046.30;;;21.39;40.54
37142;BME280;23041;49.816;20.092;2022-10-30T15:30:24;98049.91;;;21.09;40.92
37142;BME280;23041;49.816;20.092;2022-10-30T15:32:51;98047.38;;;20.65;41.33
37142;BME280;23041;49.816;20.092;2022-10-30T15:40:44;98048.49;;;19.79;42.90
37142;BME280;23041;49.816;20.092;2022-10-30T15:43:13;98051.48;;;19.61;43.53